Terminal Aerodrome Forecast
Issued by NWS

Home | Current Version | Previous Version | Text Only | Print | Product List | Glossary On
Versions: 1 2 3 4 5 6 7 8 9 10 11 12 13 14 15 16 17 18 19 20 21 22
000
FTUS41 KBTV 250520
TAFSLK
TAF
KSLK 250520Z 2506/2606 07005KT P6SM BKN150
     FM250900 10007KT P6SM VCSH OVC130
     FM251100 12009KT 4SM -SNPL BR OVC080
     FM251400 14012G19KT 4SM -FZRAPL BR OVC035
     FM251800 17019G28KT 3SM -RA BR OVC035
     FM252000 18017G24KT P6SM VCSH OVC050
     FM252300 20012KT P6SM OVC090
     FM260200 23010KT P6SM SCT100=

USA.gov is the U.S. government's official web portal to all federal, state and local government web resources and services.